createdAt,value
2023-03-15T00:02:05.644Z,6.78
2023-03-15T00:04:33.162Z,7.03
2023-03-15T00:07:01.324Z,4.93
2023-03-15T00:09:28.676Z,7.40
2023-03-15T00:11:56.029Z,8.73
2023-03-15T00:14:23.367Z,5.47
2023-03-15T00:16:50.702Z,13.57
2023-03-15T00:19:18.014Z,5.20
2023-03-15T00:21:45.371Z,1.88
2023-03-15T00:24:12.830Z,4.10
2023-03-15T00:26:40.103Z,5.75
2023-03-15T00:29:09.114Z,9.98
2023-03-15T00:31:36.950Z,2.47
2023-03-15T00:34:04.344Z,8.32
2023-03-15T00:36:33.002Z,3.92
2023-03-15T00:39:00.723Z,5.53
2023-03-15T00:41:27.984Z,14.77
2023-03-15T00:43:55.271Z,6.78
2023-03-15T00:46:22.656Z,7.07
2023-03-15T00:48:50.771Z,8.75
2023-03-15T00:51:24.295Z,7.47
2023-03-15T00:53:53.626Z,5.00
2023-03-15T00:56:26.628Z,6.82
2023-03-15T00:58:54.033Z,8.85
2023-03-15T01:01:27.720Z,5.18
2023-03-15T01:03:55.695Z,4.55
2023-03-15T01:06:27.778Z,6.35
2023-03-15T01:08:56.896Z,8.68
2023-03-15T01:11:26.709Z,4.35
2023-03-15T01:13:56.612Z,7.00
2023-03-15T01:16:24.616Z,4.63
2023-03-15T01:18:52.444Z,8.10
2023-03-15T01:21:22.256Z,4.30
2023-03-15T01:23:50.628Z,7.28
2023-03-15T01:26:18.719Z,7.18
2023-03-15T01:28:46.091Z,12.48
2023-03-15T01:31:28.268Z,16.92
2023-03-15T01:33:57.356Z,7.88
2023-03-15T01:36:25.736Z,15.02
2023-03-15T01:38:54.958Z,9.27
2023-03-15T01:41:28.010Z,10.48
2023-03-15T01:43:55.696Z,10.65
2023-03-15T01:46:34.898Z,10.13
2023-03-15T01:49:15.765Z,6.00
2023-03-15T01:52:00.012Z,14.65
2023-03-15T01:54:45.053Z,8.40
2023-03-15T01:57:22.881Z,9.95
2023-03-15T02:00:13.318Z,12.82
2023-03-15T02:02:51.119Z,8.63
2023-03-15T02:05:37.933Z,16.95
2023-03-15T02:08:09.060Z,15.15
2023-03-15T02:10:44.073Z,6.78
2023-03-15T02:13:15.320Z,7.60
2023-03-15T02:15:46.628Z,8.25
2023-03-15T02:18:20.786Z,11.80
2023-03-15T02:21:03.219Z,19.10
2023-03-15T02:23:32.051Z,12.57
2023-03-15T02:26:29.155Z,14.05
2023-03-15T02:28:59.258Z,12.48
2023-03-15T02:31:27.117Z,10.23
2023-03-15T02:33:56.766Z,12.18
2023-03-15T02:36:29.929Z,13.80
2023-03-15T02:38:57.518Z,8.13
2023-03-15T02:41:39.934Z,11.18
2023-03-15T02:44:13.358Z,14.40
2023-03-15T02:46:42.040Z,12.38
2023-03-15T02:49:11.056Z,14.90
2023-03-15T02:51:38.399Z,17.15
2023-03-15T02:54:05.781Z,13.98
2023-03-15T02:56:33.566Z,10.80
2023-03-15T02:59:02.014Z,17.40
2023-03-15T03:01:31.699Z,17.58
2023-03-15T03:03:59.058Z,36.50
2023-03-15T03:06:26.904Z,18.73
2023-03-15T03:08:54.810Z,13.50
2023-03-15T03:11:23.406Z,12.70
2023-03-15T03:13:51.486Z,10.52
2023-03-15T03:16:19.870Z,10.13
2023-03-15T03:18:47.376Z,12.13
2023-03-15T03:21:15.258Z,8.02
2023-03-15T03:23:46.280Z,9.15
2023-03-15T03:26:16.790Z,9.75
2023-03-15T03:28:47.500Z,15.07
2023-03-15T03:31:27.703Z,9.73
2023-03-15T03:33:57.199Z,18.98
2023-03-15T03:36:25.224Z,16.85
2023-03-15T03:38:57.211Z,19.05
2023-03-15T03:41:26.589Z,8.40
2023-03-15T03:43:54.095Z,12.70
2023-03-15T03:46:23.419Z,11.18
2023-03-15T03:48:53.409Z,9.48
2023-03-15T03:51:22.685Z,10.75
2023-03-15T03:53:50.006Z,10.68
2023-03-15T03:56:17.369Z,12.98
2023-03-15T03:58:45.021Z,15.52
2023-03-15T04:01:19.910Z,17.48
2023-03-15T04:03:52.335Z,14.52
2023-03-15T04:06:22.605Z,10.10
2023-03-15T04:08:50.473Z,18.45
2023-03-15T04:11:26.647Z,18.92
2023-03-15T04:13:58.018Z,10.98
2023-03-15T04:16:27.897Z,12.18
2023-03-15T04:19:00.967Z,16.90
2023-03-15T04:21:32.053Z,12.23
2023-03-15T04:24:11.088Z,9.52
2023-03-15T04:26:57.976Z,11.20
2023-03-15T04:29:45.761Z,12.85
2023-03-15T04:32:20.393Z,12.02
2023-03-15T04:37:44.548Z,10.32
2023-03-15T04:40:42.829Z,9.57
2023-03-15T04:43:30.564Z,12.38
2023-03-15T04:46:20.642Z,9.75
2023-03-15T04:49:06.809Z,9.63
2023-03-15T04:51:52.531Z,19.73
2023-03-15T04:54:39.344Z,9.02
2023-03-15T04:57:12.183Z,15.02
2023-03-15T04:59:49.815Z,13.30
2023-03-15T05:02:34.636Z,15.18
2023-03-15T05:05:12.770Z,13.55
2023-03-15T05:07:48.236Z,14.37
2023-03-15T05:10:35.190Z,11.18
2023-03-15T05:13:21.345Z,9.65
2023-03-15T05:16:18.044Z,13.68
2023-03-15T05:19:00.440Z,12.55
2023-03-15T05:21:30.512Z,17.55
2023-03-15T05:24:22.378Z,16.75
2023-03-15T05:27:13.725Z,27.83
2023-03-15T05:30:05.726Z,12.20
2023-03-15T05:32:52.256Z,15.70
2023-03-15T05:35:40.034Z,22.30
2023-03-15T05:38:27.547Z,11.57
2023-03-15T05:40:55.011Z,12.88
2023-03-15T05:43:42.788Z,22.15
2023-03-15T05:46:22.833Z,20.75
2023-03-15T05:49:10.865Z,22.27
2023-03-15T05:51:51.762Z,21.02
2023-03-15T05:54:37.813Z,14.45
2023-03-15T05:57:31.462Z,15.35
2023-03-15T06:00:17.633Z,13.07
2023-03-15T06:02:47.809Z,27.50
2023-03-15T06:05:40.807Z,21.83
2023-03-15T06:08:13.417Z,16.88
2023-03-15T06:10:44.206Z,23.60
2023-03-15T06:13:12.800Z,21.48
2023-03-15T06:15:41.041Z,17.13
2023-03-15T06:18:13.776Z,15.10
2023-03-15T06:20:41.247Z,16.23
2023-03-15T06:23:12.777Z,19.83
2023-03-15T06:25:45.512Z,23.98
2023-03-15T06:28:13.850Z,15.32
2023-03-15T06:30:46.496Z,17.67
2023-03-15T06:33:14.314Z,15.98
2023-03-15T06:35:41.836Z,14.75
2023-03-15T06:38:11.860Z,20.50
2023-03-15T06:40:39.844Z,17.48
2023-03-15T06:43:07.505Z,15.93
2023-03-15T06:45:35.659Z,20.80
2023-03-15T06:48:04.979Z,19.52
2023-03-15T06:50:46.134Z,14.93
2023-03-15T06:53:15.546Z,17.00
2023-03-15T06:55:43.175Z,15.43
2023-03-15T06:58:10.739Z,22.77
2023-03-15T07:00:38.393Z,16.60
2023-03-15T07:03:05.818Z,24.10
2023-03-15T07:05:34.449Z,15.20
2023-03-15T07:08:01.975Z,17.40
2023-03-15T07:10:29.815Z,18.17
2023-03-15T07:12:57.227Z,24.65
2023-03-15T07:15:24.741Z,29.50
2023-03-15T07:17:52.109Z,19.73
2023-03-15T07:20:19.514Z,26.15
2023-03-15T07:22:46.863Z,23.73
2023-03-15T07:25:14.297Z,19.48
2023-03-15T07:27:41.652Z,24.88
2023-03-15T07:30:09.908Z,26.30
2023-03-15T07:32:39.014Z,31.65
2023-03-15T07:35:06.819Z,24.08
2023-03-15T07:37:34.199Z,28.48
2023-03-15T07:40:09.822Z,24.08
2023-03-15T07:42:37.669Z,25.98
2023-03-15T07:45:06.479Z,23.38
2023-03-15T07:47:33.862Z,23.13
2023-03-15T07:50:01.509Z,19.92
2023-03-15T07:52:28.833Z,28.63
2023-03-15T07:54:56.115Z,25.25
2023-03-15T07:57:23.413Z,31.27
2023-03-15T07:59:52.571Z,26.05
2023-03-15T08:02:20.136Z,25.50
2023-03-15T08:04:48.726Z,22.95
2023-03-15T08:07:16.069Z,17.67
2023-03-15T08:09:43.814Z,17.98
2023-03-15T08:12:11.558Z,24.73
2023-03-15T08:14:38.881Z,14.65
2023-03-15T08:17:06.338Z,21.65
2023-03-15T08:19:33.757Z,21.50
2023-03-15T08:22:01.011Z,21.60
2023-03-15T08:24:28.434Z,20.38
2023-03-15T08:26:56.148Z,22.48
2023-03-15T08:29:23.283Z,24.08
2023-03-15T08:31:50.759Z,17.77
2023-03-15T08:34:18.137Z,28.45
2023-03-15T08:36:47.578Z,23.25
2023-03-15T08:39:15.342Z,17.50
2023-03-15T08:41:43.577Z,20.40
2023-03-15T08:44:11.309Z,23.00
2023-03-15T08:46:38.843Z,18.80
2023-03-15T08:49:07.080Z,18.63
2023-03-15T08:51:34.968Z,16.08
2023-03-15T08:54:03.943Z,21.50
2023-03-15T08:56:32.505Z,11.95
2023-03-15T08:59:00.351Z,11.77
2023-03-15T09:01:30.227Z,15.05
2023-03-15T09:03:57.624Z,14.95
2023-03-15T09:06:25.383Z,23.60
2023-03-15T09:09:11.245Z,13.27
2023-03-15T09:11:38.527Z,11.18
2023-03-15T09:14:05.867Z,12.27
2023-03-15T09:16:33.729Z,13.15
2023-03-15T09:19:00.926Z,14.45
2023-03-15T09:21:28.674Z,11.65
2023-03-15T09:23:55.960Z,9.80
2023-03-15T09:26:23.486Z,7.10
2023-03-15T09:28:51.233Z,13.82
2023-03-15T09:31:18.536Z,7.25
2023-03-15T09:33:46.690Z,4.13
2023-03-15T09:36:14.022Z,5.43
2023-03-15T09:38:43.838Z,7.35
2023-03-15T09:41:42.832Z,10.25
2023-03-15T09:44:25.259Z,6.72
2023-03-15T09:47:04.327Z,4.60
2023-03-15T09:49:34.215Z,6.40
2023-03-15T09:52:08.909Z,4.55
2023-03-15T09:54:52.581Z,7.63
2023-03-15T09:57:35.779Z,12.63
2023-03-15T10:00:11.950Z,7.03
2023-03-15T10:02:45.862Z,7.07
2023-03-15T10:05:22.976Z,16.13
2023-03-15T10:10:27.482Z,4.28
2023-03-15T10:13:46.761Z,7.95
2023-03-15T10:16:40.820Z,11.65
2023-03-15T10:19:34.057Z,3.72
2023-03-15T10:22:07.578Z,9.70
2023-03-15T10:24:40.957Z,6.43
2023-03-15T10:27:18.755Z,9.73
2023-03-15T10:29:51.779Z,6.65
2023-03-15T10:32:23.771Z,4.63
2023-03-15T10:34:55.357Z,9.73
2023-03-15T10:37:25.445Z,2.40
2023-03-15T10:39:59.214Z,7.38
2023-03-15T10:42:33.844Z,9.18
2023-03-15T10:45:24.804Z,5.20
2023-03-15T10:48:00.435Z,4.75
2023-03-15T10:50:31.508Z,2.88
2023-03-15T10:53:02.538Z,3.03
2023-03-15T10:55:37.173Z,2.80
2023-03-15T10:58:38.665Z,6.68
2023-03-15T11:01:09.654Z,1.80
2023-03-15T11:03:38.179Z,4.32
2023-03-15T11:06:25.975Z,4.30
2023-03-15T11:08:53.375Z,10.20
2023-03-15T11:11:21.591Z,2.05
2023-03-15T11:14:01.710Z,4.80
2023-03-15T11:16:36.162Z,2.42
2023-03-15T11:19:12.370Z,1.65
2023-03-15T11:21:41.274Z,3.00
2023-03-15T11:24:28.557Z,8.85
2023-03-15T11:27:01.567Z,3.42
2023-03-15T11:29:37.077Z,3.75
2023-03-15T11:32:20.754Z,5.00
2023-03-15T11:35:08.134Z,5.53
2023-03-15T11:37:47.789Z,6.40
2023-03-15T11:40:22.722Z,1.42
2023-03-15T11:43:35.621Z,1.70
2023-03-15T11:46:17.522Z,4.20
2023-03-15T11:48:57.847Z,3.95
2023-03-15T11:51:25.463Z,2.38
2023-03-15T11:54:11.472Z,6.55
2023-03-15T11:56:48.060Z,12.25
2023-03-15T11:59:26.120Z,6.20
2023-03-15T12:02:10.149Z,3.05
2023-03-15T12:04:44.103Z,6.10
2023-03-15T12:07:23.969Z,3.25
2023-03-15T12:09:52.959Z,3.45
2023-03-15T12:12:26.942Z,7.28
2023-03-15T12:15:19.057Z,8.77
2023-03-15T12:17:50.527Z,4.72
2023-03-15T12:20:23.764Z,9.98
2023-03-15T12:23:13.151Z,23.23
2023-03-15T12:25:57.930Z,11.10
2023-03-15T12:29:03.921Z,15.52
2023-03-15T12:31:52.514Z,4.15
2023-03-15T12:34:53.669Z,7.45
2023-03-15T12:37:48.942Z,10.45
2023-03-15T12:40:17.752Z,7.70
2023-03-15T12:42:48.160Z,4.95
2023-03-15T12:45:19.922Z,2.17
2023-03-15T12:47:59.128Z,5.28
2023-03-15T12:50:45.059Z,1.15
2023-03-15T12:53:27.598Z,3.03
2023-03-15T12:56:08.131Z,5.05
2023-03-15T12:58:39.299Z,6.25
2023-03-15T13:01:08.185Z,7.68
2023-03-15T13:03:36.539Z,4.03
2023-03-15T13:06:08.437Z,8.93
2023-03-15T13:09:00.473Z,2.42
2023-03-15T13:11:38.286Z,4.70
2023-03-15T13:14:14.660Z,8.13
2023-03-15T13:16:53.398Z,7.60
2023-03-15T13:19:27.132Z,3.05
2023-03-15T13:22:13.178Z,9.95
2023-03-15T13:25:23.932Z,4.57
2023-03-15T13:28:12.238Z,1.20
2023-03-15T13:30:47.342Z,2.67
2023-03-15T13:33:17.511Z,8.02
2023-03-15T13:36:09.289Z,1.52
2023-03-15T13:38:40.538Z,4.50
2023-03-15T13:41:31.197Z,3.72
2023-03-15T13:44:02.166Z,3.63
2023-03-15T13:46:31.543Z,1.77
2023-03-15T13:49:01.193Z,1.75
2023-03-15T13:51:37.647Z,5.47
2023-03-15T13:54:20.122Z,4.03
2023-03-15T13:57:07.515Z,1.35
2023-03-15T13:59:45.011Z,3.70
2023-03-15T14:02:25.909Z,6.07
2023-03-15T14:04:58.760Z,5.07
2023-03-15T14:07:49.654Z,7.93
2023-03-15T14:10:17.266Z,6.57
2023-03-15T14:12:47.478Z,5.32
2023-03-15T14:15:18.821Z,3.20
2023-03-15T14:18:14.386Z,4.40
2023-03-15T14:20:45.016Z,7.97
2023-03-15T14:23:17.493Z,2.60
2023-03-15T14:25:52.149Z,2.47
2023-03-15T14:28:20.663Z,4.68
2023-03-15T14:30:56.829Z,6.85
2023-03-15T14:33:41.073Z,5.43
2023-03-15T14:36:23.286Z,5.18
2023-03-15T14:38:53.906Z,6.50
2023-03-15T14:41:34.178Z,7.35
2023-03-15T14:44:03.227Z,6.18
2023-03-15T14:46:31.748Z,6.53
2023-03-15T14:48:59.314Z,8.23
2023-03-15T14:51:28.591Z,4.38
2023-03-15T14:53:58.751Z,4.78
2023-03-15T14:56:26.303Z,4.22
2023-03-15T14:58:56.584Z,5.05
2023-03-15T15:01:27.284Z,5.53
2023-03-15T15:04:01.920Z,5.63
2023-03-15T15:06:36.851Z,8.27
2023-03-15T15:09:06.069Z,3.05
2023-03-15T15:11:33.580Z,1.50
2023-03-15T15:14:01.036Z,4.93
2023-03-15T15:16:28.538Z,3.20
2023-03-15T15:18:55.970Z,3.30
2023-03-15T15:21:27.985Z,14.75
2023-03-15T15:23:58.995Z,8.02
2023-03-15T15:26:29.370Z,5.57
2023-03-15T15:28:57.471Z,6.10
2023-03-15T15:31:27.601Z,1.42
2023-03-15T15:33:56.838Z,8.77
2023-03-15T15:36:31.947Z,3.13
2023-03-15T15:39:06.371Z,10.77
2023-03-15T15:41:34.730Z,4.97
2023-03-15T15:44:02.360Z,0.68
2023-03-15T15:46:29.949Z,3.28
2023-03-15T15:48:58.777Z,2.10
2023-03-15T15:51:32.051Z,7.85
2023-03-15T15:54:01.494Z,7.82
2023-03-15T15:56:35.366Z,6.72
2023-03-15T15:59:06.516Z,4.43
2023-03-15T16:01:34.048Z,9.63
2023-03-15T16:04:03.876Z,8.73
2023-03-15T16:06:32.494Z,20.63
2023-03-15T16:09:00.581Z,8.52
2023-03-15T16:11:28.813Z,3.08
2023-03-15T16:13:56.550Z,4.90
2023-03-15T16:16:24.038Z,4.80
2023-03-15T16:18:51.403Z,6.68
2023-03-15T16:21:26.825Z,21.33
2023-03-15T16:24:01.053Z,9.10
2023-03-15T16:26:28.450Z,6.97
2023-03-15T16:28:55.914Z,8.30
2023-03-15T16:31:23.569Z,1.00
2023-03-15T16:33:51.048Z,6.45
2023-03-15T16:36:20.847Z,3.03
2023-03-15T16:38:48.717Z,9.07
2023-03-15T16:41:17.226Z,4.38
2023-03-15T16:43:47.314Z,6.75
2023-03-15T16:46:17.189Z,7.43
2023-03-15T16:48:44.911Z,5.93
2023-03-15T16:51:15.175Z,14.73
2023-03-15T16:53:44.716Z,7.07
2023-03-15T16:56:13.625Z,3.80
2023-03-15T16:58:43.236Z,10.02
2023-03-15T17:01:11.518Z,9.90
2023-03-15T17:03:39.399Z,10.75
2023-03-15T17:06:23.597Z,6.20
2023-03-15T17:08:53.256Z,8.75
2023-03-15T17:11:20.790Z,8.80
2023-03-15T17:13:48.103Z,7.57
2023-03-15T17:16:16.495Z,12.80
2023-03-15T17:18:44.452Z,12.88
2023-03-15T17:21:16.805Z,12.55
2023-03-15T17:23:45.700Z,12.73
2023-03-15T17:26:15.434Z,11.00
2023-03-15T17:28:43.874Z,8.10
2023-03-15T17:31:25.347Z,9.90
2023-03-15T17:33:53.220Z,7.20
2023-03-15T17:36:23.492Z,10.23
2023-03-15T17:38:51.953Z,7.32
2023-03-15T17:41:39.295Z,10.57
2023-03-15T17:44:06.868Z,11.38
2023-03-15T17:46:34.453Z,19.75
2023-03-15T17:49:03.960Z,16.15
2023-03-15T17:51:34.432Z,7.10
2023-03-15T17:54:01.869Z,19.58
2023-03-15T17:56:29.745Z,7.05
2023-03-15T17:58:57.551Z,10.30
2023-03-15T18:01:28.725Z,13.82
2023-03-15T18:03:57.043Z,16.83
2023-03-15T18:06:24.551Z,12.25
2023-03-15T18:08:52.453Z,14.80
2023-03-15T18:11:36.334Z,18.35
2023-03-15T18:14:04.587Z,11.73
2023-03-15T18:16:32.339Z,13.90
2023-03-15T18:19:02.246Z,14.38
2023-03-15T18:21:29.589Z,9.38
2023-03-15T18:23:57.133Z,13.32
2023-03-15T18:26:24.523Z,10.23
2023-03-15T18:28:51.996Z,9.07
2023-03-15T18:31:24.724Z,6.63
2023-03-15T18:33:53.294Z,5.35
2023-03-15T18:36:21.280Z,17.20
2023-03-15T18:38:49.028Z,13.60
2023-03-15T18:41:20.694Z,18.95
2023-03-15T18:43:52.327Z,9.20
2023-03-15T18:46:25.023Z,14.38
2023-03-15T18:48:53.852Z,7.65
2023-03-15T18:51:25.147Z,7.07
2023-03-15T18:53:52.550Z,20.30
2023-03-15T18:56:21.810Z,7.13
2023-03-15T18:58:50.828Z,8.70
2023-03-15T19:01:19.682Z,18.83
2023-03-15T19:03:47.076Z,19.25
2023-03-15T19:06:14.512Z,15.38
2023-03-15T19:08:41.954Z,16.00
2023-03-15T19:11:10.697Z,7.15
2023-03-15T19:13:38.590Z,18.05
2023-03-15T19:16:06.493Z,12.98
2023-03-15T19:18:34.774Z,14.32
2023-03-15T19:21:02.664Z,14.68
2023-03-15T19:23:30.156Z,10.15
2023-03-15T19:25:57.507Z,14.00
2023-03-15T19:28:25.009Z,19.77
2023-03-15T19:30:52.348Z,11.48
2023-03-15T19:33:19.711Z,13.88
2023-03-15T19:35:47.146Z,10.95
2023-03-15T19:38:14.935Z,7.88
2023-03-15T19:40:42.100Z,16.00
2023-03-15T19:43:10.286Z,18.20
2023-03-15T19:45:37.590Z,14.00
2023-03-15T19:48:05.200Z,13.50
2023-03-15T19:50:33.928Z,15.05
2023-03-15T19:53:01.335Z,25.00
2023-03-15T19:55:31.457Z,10.05
2023-03-15T19:57:59.125Z,16.38
2023-03-15T20:00:26.632Z,9.55
2023-03-15T20:02:55.403Z,9.23
2023-03-15T20:05:22.844Z,15.38
2023-03-15T20:07:51.719Z,8.93
2023-03-15T20:10:20.304Z,14.60
2023-03-15T20:12:48.046Z,11.70
2023-03-15T20:15:18.828Z,8.40
2023-03-15T20:17:46.397Z,13.25
2023-03-15T20:20:14.788Z,9.10
2023-03-15T20:22:44.233Z,8.43
2023-03-15T20:25:14.526Z,12.23
2023-03-15T20:27:42.121Z,18.05
2023-03-15T20:30:12.663Z,13.18
2023-03-15T20:32:40.280Z,11.48
2023-03-15T20:35:09.638Z,9.65
2023-03-15T20:37:40.487Z,18.73
2023-03-15T20:40:13.375Z,9.82
2023-03-15T20:42:41.818Z,11.95
2023-03-15T20:45:10.911Z,19.67
2023-03-15T20:47:39.047Z,18.00
2023-03-15T20:50:08.089Z,12.68
2023-03-15T20:52:35.519Z,12.98
2023-03-15T20:55:03.762Z,9.52
2023-03-15T20:57:31.301Z,16.00
2023-03-15T20:59:58.926Z,15.02
2023-03-15T21:02:26.250Z,10.25
2023-03-15T21:04:54.173Z,9.30
2023-03-15T21:07:21.391Z,9.05
2023-03-15T21:09:48.763Z,20.45
2023-03-15T21:12:16.178Z,12.80
2023-03-15T21:14:43.550Z,12.68
2023-03-15T21:17:11.153Z,8.57
2023-03-15T21:19:38.537Z,19.02
2023-03-15T21:22:06.190Z,12.48
2023-03-15T21:24:40.598Z,15.77
2023-03-15T21:29:40.212Z,10.90
2023-03-15T21:32:08.051Z,9.95
2023-03-15T21:34:35.853Z,10.13
2023-03-15T21:37:03.719Z,27.05
2023-03-15T21:39:30.963Z,18.25
2023-03-15T21:41:58.477Z,22.05
2023-03-15T21:44:25.733Z,6.78
2023-03-15T21:46:53.120Z,15.48
2023-03-15T21:49:21.316Z,14.10
2023-03-15T21:51:48.730Z,13.20
2023-03-15T21:54:16.227Z,15.23
2023-03-15T21:56:44.205Z,23.42
2023-03-15T21:59:12.479Z,11.95
2023-03-15T22:01:39.818Z,19.77
2023-03-15T22:04:07.350Z,7.10
2023-03-15T22:06:34.781Z,7.63
2023-03-15T22:09:02.150Z,6.30
2023-03-15T22:11:29.441Z,9.38
2023-03-15T22:13:56.884Z,23.17
2023-03-15T22:16:24.282Z,8.43
2023-03-15T22:18:51.720Z,22.63
2023-03-15T22:21:19.116Z,10.02
2023-03-15T22:23:46.448Z,9.93
2023-03-15T22:26:13.853Z,6.60
2023-03-15T22:28:41.186Z,16.05
2023-03-15T22:31:11.773Z,11.50
2023-03-15T22:33:39.351Z,14.02
2023-03-15T22:36:07.038Z,10.68
2023-03-15T22:38:40.796Z,20.02
2023-03-15T22:41:10.747Z,10.10
2023-03-15T22:43:38.940Z,10.93
2023-03-15T22:46:07.471Z,12.48
2023-03-15T22:48:35.439Z,10.20
2023-03-15T22:51:05.660Z,10.57
2023-03-15T22:53:33.268Z,7.45
2023-03-15T22:56:00.770Z,7.18
2023-03-15T22:58:28.084Z,17.67
2023-03-15T23:00:56.597Z,11.00
2023-03-15T23:03:24.427Z,11.43
2023-03-15T23:05:51.917Z,11.10
2023-03-15T23:08:19.513Z,15.15
2023-03-15T23:10:47.447Z,4.05
2023-03-15T23:13:15.148Z,9.55
2023-03-15T23:15:43.434Z,10.43
2023-03-15T23:18:11.006Z,10.40
2023-03-15T23:20:38.507Z,19.08
2023-03-15T23:23:05.814Z,11.38
2023-03-15T23:25:36.098Z,14.73
2023-03-15T23:28:03.858Z,11.20
2023-03-15T23:30:35.922Z,24.67
2023-03-15T23:33:04.223Z,16.00
2023-03-15T23:35:31.903Z,7.40
2023-03-15T23:37:59.545Z,16.42
2023-03-15T23:40:27.243Z,7.60
2023-03-15T23:42:58.932Z,12.45
2023-03-15T23:45:29.764Z,11.65
2023-03-15T23:47:57.904Z,3.58
2023-03-15T23:50:26.770Z,16.50
2023-03-15T23:52:56.160Z,14.57
2023-03-15T23:55:24.444Z,16.58
2023-03-15T23:57:52.020Z,20.05
